Time;durP1;ratioP1;P1;durP2;ratioP2;P2;SDS_P1;SDS_P2;PMS_P1;PMS_P2;Temp;Humidity;BMP_temperature;BMP_pressure;BME280_temperature;BME280_humidity;BME280_pressure;Samples;Min_cycle;Max_cycle;Signal;HPM_P1;HPM_P2
2022/10/07 00:01:51;;;;;;;14.50;7.57;;;;;;;9.49;70.58;99968.25;5090001;28;20376;-81
2022/10/07 00:04:16;;;;;;;12.00;7.32;;;;;;;9.47;69.87;99973.97;5090337;28;20024;-81
2022/10/07 00:06:42;;;;;;;12.27;8.63;;;;;;;9.46;69.71;99979.69;5091269;28;20487;-80
2022/10/07 00:09:07;;;;;;;13.65;8.90;;;;;;;9.45;70.14;99978.03;5091072;28;20024;-81
2022/10/07 00:11:32;;;;;;;18.27;10.40;;;;;;;9.44;69.96;99974.47;5089551;28;20024;-81
2022/10/07 00:14:01;;;;;;;16.08;10.52;;;;;;;9.44;70.38;99979.97;5090551;28;20030;-80
2022/10/07 00:16:31;;;;;;;15.20;9.70;;;;;;;9.44;69.74;99977.22;5072530;28;20093;-80
2022/10/07 00:19:00;;;;;;;15.35;9.07;;;;;;;9.44;70.31;99976.38;5091419;28;20028;-81
2022/10/07 00:21:28;;;;;;;13.75;8.50;;;;;;;9.45;69.88;99975.28;5090442;28;20107;-81
2022/10/07 00:23:54;;;;;;;14.30;9.35;;;;;;;9.47;69.88;99975.88;5090569;28;20056;-81
2022/10/07 00:26:23;;;;;;;18.05;9.88;;;;;;;9.43;70.11;99972.81;5086770;28;20495;-81
2022/10/07 00:28:49;;;;;;;18.90;11.00;;;;;;;9.41;70.14;99966.75;5072618;28;20446;-81
2022/10/07 00:31:18;;;;;;;16.50;10.30;;;;;;;9.39;70.15;99961.53;5090095;28;20108;-82
2022/10/07 00:33:44;;;;;;;15.48;10.10;;;;;;;9.36;70.67;99975.75;5065730;28;20490;-81
2022/10/07 00:36:24;;;;;;;19.60;10.98;;;;;;;9.35;70.77;99970.50;5090835;28;20042;-81
2022/10/07 00:38:50;;;;;;;;;;;;;;;9.34;69.55;99963.38;5085726;28;20027;-81
2022/10/07 00:41:21;;;;;;;18.50;11.20;;;;;;;9.31;70.29;99963.88;5090292;28;19908;-81
2022/10/07 00:43:47;;;;;;;19.25;12.15;;;;;;;9.30;70.33;99954.84;5090861;28;20048;-81
2022/10/07 00:46:25;;;;;;;17.02;11.18;;;;;;;9.30;70.64;99960.31;5090491;28;20103;-80
2022/10/07 00:48:50;;;;;;;17.33;10.23;;;;;;;9.27;70.74;99959.97;5090542;28;20044;-81
2022/10/07 00:51:17;;;;;;;16.77;10.45;;;;;;;9.22;70.59;99953.34;5090059;28;20157;-81
2022/10/07 00:53:46;;;;;;;14.75;9.52;;;;;;;9.19;70.00;99955.75;5090352;28;20480;-81
2022/10/07 00:56:13;;;;;;;14.10;10.00;;;;;;;9.17;70.58;99950.50;5090236;28;20047;-81
2022/10/07 00:58:42;;;;;;;15.05;9.60;;;;;;;9.14;70.76;99942.00;5090267;28;20031;-81
2022/10/07 01:01:07;;;;;;;16.85;10.90;;;;;;;9.13;70.03;99948.53;5090085;28;20031;-80
2022/10/07 01:03:34;;;;;;;16.00;10.95;;;;;;;9.08;70.01;99944.63;5089845;28;20384;-80
2022/10/07 01:06:01;;;;;;;19.08;11.02;;;;;;;9.07;70.68;99944.91;5089490;28;20026;-81
2022/10/07 01:08:26;;;;;;;13.93;9.45;;;;;;;9.04;70.66;99939.94;5090103;28;20429;-81
2022/10/07 01:10:55;;;;;;;16.85;10.43;;;;;;;9.02;70.60;99937.44;5089470;28;20028;-81
2022/10/07 01:13:39;;;;;;;17.40;12.13;;;;;;;9.01;70.28;99941.25;5090142;28;20107;-81
2022/10/07 01:16:13;;;;;;;18.23;12.18;;;;;;;8.99;70.35;99935.19;5089895;28;20032;-81
2022/10/07 01:19:07;;;;;;;16.40;11.05;;;;;;;8.96;70.29;99932.13;5089769;28;20051;-81
2022/10/07 01:22:15;;;;;;;21.33;12.95;;;;;;;8.91;70.17;99933.69;5087336;28;20048;-81
2022/10/07 01:24:55;;;;;;;19.35;13.05;;;;;;;8.89;69.91;99933.13;5055950;28;20089;-81
2022/10/07 01:27:25;;;;;;;19.77;12.98;;;;;;;8.88;70.41;99933.38;5086725;28;20032;-81
2022/10/07 01:30:02;;;;;;;22.67;13.50;;;;;;;8.85;69.84;99926.50;5088972;28;20426;-81
2022/10/07 01:32:37;;;;;;;17.83;13.75;;;;;;;8.83;70.13;99925.91;5070292;28;20031;-81
2022/10/07 01:35:07;;;;;;;18.52;12.55;;;;;;;8.81;70.26;99925.31;5089588;28;20534;-81
2022/10/07 01:37:39;;;;;;;22.67;14.52;;;;;;;8.76;70.70;99920.59;5071791;28;20052;-81
2022/10/07 01:40:10;;;;;;;21.23;14.00;;;;;;;8.74;70.13;99922.75;5085329;28;20063;-80
2022/10/07 01:42:36;;;;;;;24.75;14.70;;;;;;;8.71;70.17;99920.50;5088815;28;20028;-80
2022/10/07 01:45:02;;;;;;;28.70;15.57;;;;;;;8.69;70.24;99914.47;5089840;28;20060;-81
2022/10/07 01:47:28;;;;;;;25.15;15.20;;;;;;;8.68;70.49;99914.72;5090981;28;20051;-80
2022/10/07 01:49:53;;;;;;;38.47;18.10;;;;;;;8.64;70.20;99920.69;5093301;28;20059;-81
2022/10/07 01:52:41;;;;;;;34.88;17.80;;;;;;;8.61;70.86;99915.72;5074308;28;20032;-81
2022/10/07 01:55:36;;;;;;;32.22;18.17;;;;;;;8.61;70.63;99918.44;5074799;28;20064;-81
2022/10/07 01:58:12;;;;;;;36.20;19.23;;;;;;;8.59;70.28;99914.28;5092177;28;20032;-80
2022/10/07 02:00:54;;;;;;;33.75;18.63;;;;;;;8.58;70.22;99912.63;5093196;28;20048;-81
2022/10/07 02:03:51;;;;;;;31.70;17.63;;;;;;;8.51;70.44;99906.50;5074456;28;20071;-81
2022/10/07 02:06:16;;;;;;;34.63;17.70;;;;;;;8.52;70.79;99905.44;5019718;28;20032;-81
2022/10/07 02:08:48;;;;;;;31.73;17.83;;;;;;;8.49;70.82;99904.00;5093386;28;20089;-81
2022/10/07 02:11:36;;;;;;;31.58;17.70;;;;;;;8.51;70.47;99904.59;5092818;28;20059;-81
2022/10/07 02:14:07;;;;;;;28.23;16.98;;;;;;;8.51;70.43;99903.78;5092721;28;20074;-81
2022/10/07 02:17:11;;;;;;;30.40;18.30;;;;;;;8.46;70.92;99897.09;5092207;28;20024;-78
2022/10/07 02:19:42;;;;;;;32.47;18.42;;;;;;;8.44;70.70;99893.78;5074794;28;20047;-79
2022/10/07 02:22:10;;;;;;;34.20;18.20;;;;;;;8.47;70.96;99900.66;5092318;28;20027;-78
2022/10/07 02:24:37;;;;;;;30.83;19.00;;;;;;;8.45;70.92;99895.44;5092758;28;20024;-78
2022/10/07 02:27:09;;;;;;;30.52;18.90;;;;;;;8.43;70.13;99892.13;5091943;28;20028;-78
2022/10/07 02:29:38;;;;;;;35.10;20.98;;;;;;;8.42;70.77;99887.75;5092289;28;20115;-78
2022/10/07 02:32:08;;;;;;;29.98;19.00;;;;;;;8.39;71.21;99881.91;5091769;28;20028;-78
2022/10/07 02:34:35;;;;;;;30.88;18.60;;;;;;;8.37;70.69;99887.66;5092353;28;20035;-78
2022/10/07 02:37:05;;;;;;;33.63;18.33;;;;;;;8.35;70.70;99892.53;5090645;28;20035;-77
2022/10/07 02:39:32;;;;;;;28.05;17.65;;;;;;;8.37;70.76;99889.53;5091770;28;20464;-77
2022/10/07 02:42:04;;;;;;;25.58;17.80;;;;;;;8.37;71.03;99887.66;5091710;28;20024;-77
2022/10/07 02:44:31;;;;;;;27.45;17.75;;;;;;;8.37;70.58;99887.66;5092440;28;20056;-77
2022/10/07 02:47:10;;;;;;;32.17;18.85;;;;;;;8.35;70.76;99881.59;5091741;28;20079;-77
2022/10/07 02:49:39;;;;;;;33.55;20.17;;;;;;;8.35;70.75;99885.13;5073776;28;20024;-77
2022/10/07 02:52:08;;;;;;;35.72;19.77;;;;;;;8.38;70.96;99883.00;5091402;28;20408;-77
2022/10/07 02:54:42;;;;;;;38.15;21.25;;;;;;;8.37;71.06;99879.44;5090608;28;20046;-77
2022/10/07 02:57:11;;;;;;;35.58;20.00;;;;;;;8.37;70.86;99870.41;5089940;28;20034;-78
2022/10/07 02:59:38;;;;;;;33.30;19.80;;;;;;;8.35;70.86;99881.59;5087894;28;20028;-77
2022/10/07 03:02:09;;;;;;;34.60;18.63;;;;;;;8.31;71.40;99870.34;5089738;28;20031;-77
2022/10/07 03:04:34;;;;;;;30.10;18.13;;;;;;;8.31;70.93;99869.50;5071988;28;20024;-77
2022/10/07 03:07:00;;;;;;;31.98;19.05;;;;;;;8.31;70.89;99869.50;5089792;28;20023;-77
2022/10/07 03:09:26;;;;;;;31.77;19.02;;;;;;;8.31;71.48;99873.06;5091867;28;20380;-76
2022/10/07 03:11:52;;;;;;;31.17;18.42;;;;;;;8.32;71.22;99866.53;5091187;28;20551;-77
2022/10/07 03:14:17;;;;;;;29.58;17.95;;;;;;;8.30;71.21;99863.22;5092222;28;20028;-77
2022/10/07 03:16:43;;;;;;;31.92;18.40;;;;;;;8.28;71.22;99867.25;5073591;28;20024;-77
2022/10/07 03:19:09;;;;;;;32.78;17.92;;;;;;;8.28;70.77;99859.03;5073682;28;20028;-77
2022/10/07 03:21:35;;;;;;;31.98;18.15;;;;;;;8.25;70.45;99854.91;5091377;28;20097;-76
2022/10/07 03:24:03;;;;;;;34.80;18.35;;;;;;;8.24;71.28;99853.25;5091790;28;20160;-77
2022/10/07 03:26:32;;;;;;;37.65;18.00;;;;;;;8.24;71.36;99849.69;5081090;28;20059;-77
2022/10/07 03:28:59;;;;;;;32.25;18.35;;;;;;;8.23;70.88;99851.59;5091498;28;20053;-77
2022/10/07 03:31:26;;;;;;;30.40;16.73;;;;;;;8.22;71.33;99860.88;5090904;28;20040;-77
2022/10/07 03:33:55;;;;;;;28.35;15.95;;;;;;;8.22;71.42;99847.22;5091359;28;20115;-76
2022/10/07 03:36:22;;;;;;;28.73;16.17;;;;;;;8.22;71.13;99847.22;5091378;28;20028;-77
2022/10/07 03:38:49;;;;;;;30.38;15.00;;;;;;;8.22;71.37;99852.69;5091086;28;20032;-76
2022/10/07 03:41:15;;;;;;;28.60;16.25;;;;;;;8.22;71.58;99849.09;5072907;28;20031;-77
2022/10/07 03:43:40;;;;;;;24.50;14.32;;;;;;;8.19;71.02;99845.78;5090839;28;20051;-77
2022/10/07 03:46:06;;;;;;;28.77;15.32;;;;;;;8.17;71.19;99839.72;5091546;28;20421;-77
2022/10/07 03:48:31;;;;;;;30.08;15.82;;;;;;;8.15;71.36;99843.78;5091130;28;20028;-77
2022/10/07 03:50:57;;;;;;;28.58;16.30;;;;;;;8.11;71.50;99840.75;5090738;28;20418;-76
2022/10/07 03:53:24;;;;;;;31.85;16.40;;;;;;;8.10;71.35;99833.63;5088181;28;20024;-76
2022/10/07 03:55:50;;;;;;;29.48;16.52;;;;;;;8.08;71.35;99837.66;5090946;28;20503;-77
2022/10/07 03:58:15;;;;;;;27.75;16.05;;;;;;;8.07;71.28;99830.53;5090482;28;20028;-77
2022/10/07 04:00:41;;;;;;;30.00;17.42;;;;;;;8.05;71.06;99828.06;5090921;28;20024;-77
2022/10/07 04:03:07;;;;;;;28.13;15.35;;;;;;;8.04;71.24;99831.84;5090294;28;20423;-77
2022/10/07 04:05:35;;;;;;;28.42;15.32;;;;;;;8.04;71.53;99826.41;5090698;28;20032;-77
2022/10/07 04:08:01;;;;;;;27.33;15.52;;;;;;;8.03;70.93;99822.00;5072274;28;20034;-77
2022/10/07 04:10:26;;;;;;;28.00;16.05;;;;;;;8.02;71.47;99820.34;5090679;28;20104;-77
2022/10/07 04:12:52;;;;;;;28.25;16.63;;;;;;;7.98;71.12;99814.53;5090077;28;20435;-76
2022/10/07 04:15:18;;;;;;;32.72;17.38;;;;;;;7.97;71.44;99817.53;5090827;28;20028;-77
2022/10/07 04:17:45;;;;;;;28.13;17.45;;;;;;;7.97;71.25;99817.53;5090540;28;20463;-76
2022/10/07 04:20:13;;;;;;;33.17;18.95;;;;;;;7.94;71.85;99812.53;5091201;28;20032;-77
2022/10/07 04:22:38;;;;;;;38.95;25.63;;;;;;;7.92;71.73;99810.06;5072198;28;20149;-76
2022/10/07 04:27:53;;;;;;;29.60;19.98;;;;;;;7.90;71.58;99809.50;5085753;28;20498;-77
2022/10/07 04:30:19;;;;;;;;;;;;;;;7.90;71.42;99806.75;5073191;28;20032;-76
2022/10/07 04:32:44;;;;;;;27.83;18.08;;;;;;;7.90;72.00;99804.84;5089510;28;19965;-76
2022/10/07 04:35:10;;;;;;;33.28;19.23;;;;;;;7.88;71.77;99803.44;5090597;28;20107;-77
2022/10/07 04:37:35;;;;;;;32.95;19.10;;;;;;;7.86;71.92;99800.13;5090679;28;20028;-77
2022/10/07 04:40:01;;;;;;;30.27;18.50;;;;;;;7.85;71.73;99798.47;5090289;28;20051;-77
2022/10/07 04:45:14;;;;;;;32.17;20.20;;;;;;;7.83;71.42;99800.59;5061535;28;20512;-76
2022/10/07 04:47:40;;;;;;;36.20;21.13;;;;;;;7.83;71.13;99800.59;5090343;28;20075;-76
2022/10/07 04:50:06;;;;;;;38.30;22.10;;;;;;;7.83;71.54;99801.41;5090178;28;20369;-77
2022/10/07 04:52:32;;;;;;;41.95;23.17;;;;;;;7.81;71.85;99791.81;5090263;28;20031;-76
2022/10/07 04:54:57;;;;;;;42.63;25.05;;;;;;;7.78;71.70;99789.59;5090295;28;20028;-77
2022/10/07 04:57:22;;;;;;;37.03;22.45;;;;;;;7.77;71.58;99790.66;5090282;28;20028;-77
2022/10/07 04:59:48;;;;;;;35.83;23.15;;;;;;;7.75;71.74;99785.44;5089333;28;20024;-76
2022/10/07 05:02:13;;;;;;;31.08;20.23;;;;;;;7.73;72.03;99779.41;5089338;28;20373;-76
2022/10/07 05:04:38;;;;;;;31.10;20.60;;;;;;;7.70;71.69;99786.16;5071454;28;20028;-76
2022/10/07 05:07:04;;;;;;;25.58;17.23;;;;;;;7.68;71.94;99782.84;5089456;28;20039;-77
2022/10/07 05:09:29;;;;;;;29.88;18.48;;;;;;;7.69;71.48;99780.97;5089959;28;20066;-76
2022/10/07 05:11:55;;;;;;;31.48;18.58;;;;;;;7.68;71.78;99782.03;5089755;28;20032;-76
2022/10/07 05:14:21;;;;;;;27.75;16.10;;;;;;;7.68;71.58;99782.03;5089977;28;20039;-77
2022/10/07 05:16:47;;;;;;;28.55;16.60;;;;;;;7.67;71.72;99792.13;5072161;28;20028;-77
2022/10/07 05:19:13;;;;;;;25.38;15.38;;;;;;;7.68;71.64;99785.59;5089608;28;20028;-76
2022/10/07 05:21:38;;;;;;;23.88;15.23;;;;;;;7.68;71.64;99791.03;5089846;28;20084;-76
2022/10/07 05:24:05;;;;;;;26.05;15.80;;;;;;;7.69;72.00;99792.69;5094589;28;20043;-76
2022/10/07 05:26:30;;;;;;;23.60;15.65;;;;;;;7.72;71.84;99791.41;5093154;28;20031;-76
2022/10/07 05:28:56;;;;;;;24.25;15.40;;;;;;;7.75;72.36;99788.16;5093877;28;20029;-76
2022/10/07 05:31:21;;;;;;;25.08;16.00;;;;;;;7.79;71.58;99791.25;5093592;28;20028;-76
2022/10/07 05:33:48;;;;;;;22.95;15.57;;;;;;;7.80;72.21;99785.53;5093470;28;20055;-76
2022/10/07 05:36:14;;;;;;;22.52;15.30;;;;;;;7.83;71.52;99782.31;5093987;28;20024;-77
2022/10/07 05:38:39;;;;;;;23.45;15.98;;;;;;;7.85;72.11;99780.16;5093386;28;20161;-76
2022/10/07 05:41:08;;;;;;;25.85;15.23;;;;;;;7.89;72.03;99784.06;5093522;28;20031;-77
2022/10/07 05:43:36;;;;;;;24.03;16.30;;;;;;;7.94;71.57;99779.75;5093326;28;20100;-77
2022/10/07 05:46:05;;;;;;;23.83;16.13;;;;;;;7.96;72.13;99788.53;5093143;28;20602;-77
2022/10/07 05:48:32;;;;;;;25.52;16.38;;;;;;;8.00;71.78;99786.97;5093427;28;20471;-77
2022/10/07 05:50:57;;;;;;;27.27;17.05;;;;;;;8.01;71.88;99789.44;5093026;28;20028;-77
2022/10/07 05:53:24;;;;;;;28.98;17.02;;;;;;;8.04;72.01;99778.03;5093421;28;20043;-77
2022/10/07 05:55:51;;;;;;;28.30;17.20;;;;;;;8.08;72.25;99778.38;5074964;28;20111;-77
2022/10/07 05:58:18;;;;;;;27.70;17.10;;;;;;;8.13;72.52;99775.75;5093648;28;20105;-77
2022/10/07 06:00:53;;;;;;;26.20;16.17;;;;;;;8.19;72.76;99779.38;5093422;28;20484;-77
2022/10/07 06:03:19;;;;;;;34.30;21.23;;;;;;;8.23;72.09;99782.44;5092633;28;20020;-77
2022/10/07 06:05:46;;;;;;;31.45;18.48;;;;;;;8.23;72.24;99776.97;5093050;28;20117;-77
2022/10/07 06:08:12;;;;;;;28.55;17.73;;;;;;;8.25;72.55;99788.47;5074931;28;20048;-77
2022/10/07 06:13:22;;;;;;;29.17;17.98;;;;;;;8.33;72.33;99777.13;5092908;28;20498;-76
2022/10/07 06:15:48;;;;;;;29.75;17.60;;;;;;;8.39;72.85;99783.50;5093394;28;20020;-77
2022/10/07 06:18:14;;;;;;;30.15;18.23;;;;;;;8.47;72.86;99774.88;5092774;28;20040;-77
2022/10/07 06:20:39;;;;;;;31.00;17.98;;;;;;;8.55;73.00;99774.50;5074622;28;20036;-77
2022/10/07 06:23:06;;;;;;;28.92;17.95;;;;;;;8.63;72.93;99782.28;5092694;28;20071;-77
2022/10/07 06:25:31;;;;;;;30.00;18.58;;;;;;;8.74;72.66;99776.97;5091128;28;20020;-77
2022/10/07 06:27:57;;;;;;;29.13;17.35;;;;;;;8.81;72.40;99777.59;5092459;28;20032;-77
2022/10/07 06:30:24;;;;;;;25.67;17.30;;;;;;;8.89;72.93;99777.16;5092152;28;20426;-77
2022/10/07 06:32:50;;;;;;;27.23;18.55;;;;;;;8.99;73.21;99773.72;5091187;28;20111;-77
2022/10/07 06:35:15;;;;;;;28.42;18.02;;;;;;;9.08;72.71;99782.34;5092559;28;20111;-77
2022/10/07 06:37:40;;;;;;;29.88;18.30;;;;;;;9.18;72.94;99776.19;5092571;28;20427;-77
2022/10/07 06:40:06;;;;;;;27.65;17.30;;;;;;;9.28;73.36;99779.03;5092589;28;20453;-77
2022/10/07 06:42:32;;;;;;;25.67;16.75;;;;;;;9.38;73.25;99768.19;5092416;28;20460;-77
2022/10/07 06:44:57;;;;;;;25.25;16.25;;;;;;;9.47;73.06;99774.06;5092766;28;20023;-77
2022/10/07 06:47:22;;;;;;;24.17;15.77;;;;;;;9.57;73.75;99765.13;5092000;28;20036;-78
2022/10/07 06:49:48;;;;;;;20.20;14.65;;;;;;;9.64;74.10;99757.53;5074043;28;20080;-77
2022/10/07 06:52:13;;;;;;;19.90;13.88;;;;;;;9.74;74.29;99756.00;5091556;28;20035;-77
2022/10/07 06:54:38;;;;;;;19.30;12.50;;;;;;;9.83;74.42;99757.16;5092515;28;20041;-77
2022/10/07 06:57:04;;;;;;;22.70;13.32;;;;;;;9.90;74.97;99763.25;5092122;28;20012;-77
2022/10/07 06:59:29;;;;;;;21.45;13.77;;;;;;;9.99;74.10;99769.09;5073752;28;20032;-75
2022/10/07 07:01:54;;;;;;;19.48;13.93;;;;;;;10.09;74.53;99766.44;5072520;28;20391;-76
2022/10/07 07:04:20;;;;;;;23.50;14.30;;;;;;;10.19;74.90;99762.97;5091545;28;20016;-76
2022/10/07 07:06:45;;;;;;;26.52;15.80;;;;;;;10.26;74.53;99758.09;5064233;28;20017;-81
2022/10/07 07:09:11;;;;;;;22.30;15.07;;;;;;;10.36;74.50;99762.84;5092348;28;20051;-79
2022/10/07 07:11:36;;;;;;;23.42;16.17;;;;;;;10.47;74.63;99746.47;5080524;28;20036;-75
2022/10/07 07:14:07;;;;;;;23.30;16.77;;;;;;;10.56;75.26;99743.00;5084429;28;20150;-74
2022/10/07 07:16:34;;;;;;;25.50;15.70;;;;;;;10.67;75.11;99743.03;5074603;28;20079;-76
2022/10/07 07:19:04;;;;;;;21.80;14.90;;;;;;;10.74;75.24;99735.38;5085327;28;20085;-76
2022/10/07 07:21:30;;;;;;;21.10;14.45;;;;;;;10.83;75.02;99736.56;5086619;28;20031;-76
2022/10/07 07:23:57;;;;;;;23.23;14.35;;;;;;;10.92;75.39;99731.38;5064752;28;20024;-78
2022/10/07 07:26:23;;;;;;;22.58;14.07;;;;;;;11.01;75.66;99728.94;5069128;28;20020;-75
2022/10/07 07:28:58;;;;;;;23.60;13.55;;;;;;;11.12;75.52;99732.56;5083403;28;20019;-76
2022/10/07 07:31:25;;;;;;;19.40;13.10;;;;;;;11.24;75.66;99732.31;5057357;28;20115;-76
2022/10/07 07:33:51;;;;;;;19.58;12.82;;;;;;;11.36;76.01;99732.09;5086361;28;20074;-76
2022/10/07 07:36:19;;;;;;;18.85;13.07;;;;;;;11.44;75.69;99728.81;5082796;28;20040;-76
2022/10/07 07:38:50;;;;;;;20.25;12.18;;;;;;;11.54;75.88;99719.75;5068567;28;20038;-76
2022/10/07 07:41:16;;;;;;;18.10;12.45;;;;;;;11.65;75.73;99717.84;5088354;28;20073;-77
2022/10/07 07:43:42;;;;;;;17.88;11.98;;;;;;;11.74;75.79;99724.47;5079310;28;20032;-76
2022/10/07 07:46:07;;;;;;;17.05;12.10;;;;;;;11.85;76.39;99709.66;5085444;28;20038;-76
2022/10/07 07:48:32;;;;;;;17.42;12.32;;;;;;;11.95;76.14;99719.81;5067464;28;20036;-77
2022/10/07 07:50:59;;;;;;;19.00;12.82;;;;;;;12.04;75.99;99704.47;5081271;28;20437;-78
2022/10/07 07:53:24;;;;;;;20.13;12.57;;;;;;;12.13;76.37;99703.91;5083503;28;20030;-75
2022/10/07 07:55:54;;;;;;;19.77;12.40;;;;;;;12.23;76.10;99705.81;5084750;28;20036;-75
2022/10/07 07:58:20;;;;;;;;;;;;;;;12.35;76.09;99706.38;5089614;28;20024;-74
2022/10/07 08:01:04;;;;;;;21.33;14.38;;;;;;;12.46;76.47;99712.66;5083907;28;20395;-74
2022/10/07 08:03:30;;;;;;;19.80;13.80;;;;;;;12.56;76.04;99704.41;5082416;28;20055;-75
2022/10/07 08:06:00;;;;;;;19.17;13.20;;;;;;;12.66;75.95;99698.03;5080639;28;20071;-74
2022/10/07 08:08:26;;;;;;;19.80;13.07;;;;;;;12.76;76.15;99699.94;5087697;28;20052;-75
2022/10/07 08:10:51;;;;;;;18.35;13.35;;;;;;;12.86;76.15;99705.41;5080214;28;20135;-73
2022/10/07 08:13:17;;;;;;;18.20;12.95;;;;;;;12.95;76.10;99705.63;5081917;28;20031;-76
2022/10/07 08:15:42;;;;;;;22.23;13.27;;;;;;;13.03;75.85;99699.56;5075131;28;20016;-74
2022/10/07 08:18:08;;;;;;;20.10;12.68;;;;;;;13.15;76.04;99709.44;5084688;28;20058;-77
2022/10/07 08:20:35;;;;;;;20.65;12.98;;;;;;;13.25;76.21;99695.56;5084911;28;20029;-73
2022/10/07 08:23:04;;;;;;;20.10;13.05;;;;;;;13.39;76.04;99698.56;5077199;28;20028;-73
2022/10/07 08:25:29;;;;;;;21.17;14.05;;;;;;;13.54;76.13;99694.91;5088816;28;20024;-73
2022/10/07 08:27:54;;;;;;;17.92;13.07;;;;;;;13.66;76.23;99691.78;5082582;28;20085;-72
2022/10/07 08:30:20;;;;;;;18.55;13.95;;;;;;;13.76;76.18;99688.13;5086446;28;20043;-75
2022/10/07 08:32:45;;;;;;;17.35;12.55;;;;;;;13.86;76.25;99695.53;5080174;28;20037;-74
2022/10/07 08:35:10;;;;;;;16.85;12.63;;;;;;;13.94;75.66;99684.69;5089264;28;20436;-75
2022/10/07 08:37:36;;;;;;;15.68;11.65;;;;;;;14.01;75.86;99683.53;5079213;28;20100;-75
2022/10/07 08:40:02;;;;;;;17.00;11.65;;;;;;;14.08;75.68;99679.31;5084658;28;20073;-75
2022/10/07 08:42:36;;;;;;;16.10;11.52;;;;;;;14.14;75.57;99675.41;5089495;28;20464;-76
2022/10/07 08:45:02;;;;;;;17.20;11.27;;;;;;;14.21;75.27;99679.78;5085906;28;20024;-76
2022/10/07 08:47:37;;;;;;;15.73;11.85;;;;;;;14.25;75.41;99681.66;5089470;28;20635;-76
2022/10/07 08:50:18;;;;;;;16.52;12.30;;;;;;;14.29;75.28;99679.94;5086835;28;20393;-75
2022/10/07 08:52:50;;;;;;;17.25;12.93;;;;;;;14.38;75.17;99682.09;5089440;28;20024;-77
2022/10/07 08:55:21;;;;;;;18.45;12.65;;;;;;;14.47;75.37;99673.97;5089939;28;20078;-76
2022/10/07 08:58:05;;;;;;;16.80;12.93;;;;;;;14.54;75.31;99667.00;5088222;28;20039;-75
2022/10/07 09:00:41;;;;;;;16.25;11.57;;;;;;;14.64;75.33;99671.59;5090932;28;20020;-75
2022/10/07 09:03:42;;;;;;;14.60;11.50;;;;;;;14.76;75.14;99665.69;5084082;28;20028;-75
2022/10/07 09:06:12;;;;;;;15.77;11.45;;;;;;;14.87;75.04;99669.97;5083521;28;20036;-76
2022/10/07 09:08:48;;;;;;;16.75;11.60;;;;;;;14.97;74.88;99668.19;5076199;28;20024;-77
2022/10/07 09:11:19;;;;;;;16.23;12.00;;;;;;;15.06;74.81;99662.84;5093395;28;20040;-76
2022/10/07 09:13:53;;;;;;;17.75;12.00;;;;;;;15.17;74.56;99658.78;5093615;28;20379;-76
2022/10/07 09:16:24;;;;;;;15.27;11.68;;;;;;;15.25;74.68;99658.13;5093868;28;20028;-75
2022/10/07 09:18:58;;;;;;;15.73;12.00;;;;;;;15.31;74.13;99653.34;5093794;28;20032;-75
2022/10/07 09:21:35;;;;;;;19.17;12.73;;;;;;;15.41;74.31;99655.16;5075120;28;20027;-77
2022/10/07 09:24:16;;;;;;;17.25;11.90;;;;;;;15.52;74.55;99647.53;5075171;28;20035;-75
2022/10/07 09:26:42;;;;;;;15.43;11.23;;;;;;;15.62;73.92;99639.06;5093330;28;20028;-75
2022/10/07 09:29:09;;;;;;;15.13;10.70;;;;;;;15.75;74.06;99645.78;5093633;28;20487;-75
2022/10/07 09:31:34;;;;;;;15.88;12.05;;;;;;;15.85;73.64;99639.25;5092899;28;20040;-76
2022/10/07 09:33:59;;;;;;;16.92;12.05;;;;;;;15.91;73.96;99635.31;5093176;28;20028;-76
2022/10/07 09:36:25;;;;;;;15.15;12.00;;;;;;;15.97;73.18;99630.50;5093419;28;20031;-75
2022/10/07 09:38:52;;;;;;;17.67;12.70;;;;;;;16.03;73.44;99635.66;5093562;28;20114;-75
2022/10/07 09:41:34;;;;;;;17.42;12.40;;;;;;;16.09;73.43;99627.25;5093077;28;20043;-76
2022/10/07 09:44:14;;;;;;;17.60;13.07;;;;;;;16.17;73.04;99624.59;5092855;28;20066;-76
2022/10/07 09:46:51;;;;;;;15.70;12.05;;;;;;;16.24;72.79;99624.19;5092862;28;20055;-76
2022/10/07 09:49:40;;;;;;;15.98;11.88;;;;;;;16.28;72.60;99625.22;5093374;28;20027;-75
2022/10/07 09:52:22;;;;;;;18.70;11.60;;;;;;;16.35;73.05;99624.81;5074495;28;20020;-75
2022/10/07 09:54:50;;;;;;;16.80;11.43;;;;;;;16.47;72.69;99627.09;5092762;28;20274;-75
2022/10/07 09:57:26;;;;;;;17.30;11.23;;;;;;;16.57;72.96;99626.88;5093118;28;20051;-74
2022/10/07 10:00:12;;;;;;;16.35;11.18;;;;;;;16.68;72.71;99616.44;5093320;28;20031;-74
2022/10/07 10:02:46;;;;;;;15.50;11.63;;;;;;;16.77;72.62;99617.31;5091991;28;20020;-76
2022/10/07 10:05:27;;;;;;;18.80;12.90;;;;;;;16.83;72.39;99609.75;5092589;28;20376;-75
2022/10/07 10:07:57;;;;;;;16.10;11.02;;;;;;;16.92;72.02;99612.59;5091955;28;20024;-74
2022/10/07 10:10:29;;;;;;;15.35;10.98;;;;;;;16.99;72.13;99614.97;5074089;28;20480;-76
2022/10/07 10:12:57;;;;;;;17.15;11.45;;;;;;;17.08;72.19;99607.56;5092247;28;20028;-74
2022/10/07 10:15:35;;;;;;;14.40;11.13;;;;;;;17.17;71.88;99599.31;5092585;28;20084;-75
2022/10/07 10:18:01;;;;;;;18.83;11.55;;;;;;;17.19;71.65;99603.44;5073020;28;20036;-75
2022/10/07 10:20:38;;;;;;;16.05;10.45;;;;;;;17.25;71.69;99590.25;5092276;28;20582;-75
2022/10/07 10:23:22;;;;;;;13.20;10.32;;;;;;;17.33;71.75;99588.69;5092144;28;20019;-76
2022/10/07 10:29:07;;;;;;;12.80;9.95;;;;;;;17.39;71.30;99585.50;5092616;28;20035;-75
2022/10/07 10:31:41;;;;;;;11.32;9.48;;;;;;;17.43;71.04;99571.81;5088672;28;20028;-75
2022/10/07 10:34:28;;;;;;;12.80;9.63;;;;;;;17.50;71.37;99574.97;5091999;28;20519;-74
2022/10/07 10:37:04;;;;;;;12.52;9.95;;;;;;;17.51;70.92;99568.28;5092115;28;20024;-75
2022/10/07 10:39:46;;;;;;;17.42;11.57;;;;;;;17.52;70.48;99563.56;5092353;28;20114;-74
2022/10/07 10:42:18;;;;;;;10.38;8.43;;;;;;;17.54;70.49;99564.88;5091961;28;20085;-74
2022/10/07 10:44:54;;;;;;;10.13;8.27;;;;;;;17.60;70.50;99570.31;5086644;28;20050;-74
2022/10/07 10:47:36;;;;;;;9.77;8.25;;;;;;;17.67;70.62;99557.63;5073967;28;20538;-74
2022/10/07 10:50:07;;;;;;;11.80;8.07;;;;;;;17.75;70.27;99553.25;5073872;28;20499;-74
2022/10/07 10:52:50;;;;;;;10.85;7.95;;;;;;;17.85;70.42;99550.22;5091605;28;20174;-74
2022/10/07 10:55:39;;;;;;;11.75;8.13;;;;;;;17.96;70.44;99541.63;5091896;28;20426;-74
2022/10/07 10:58:04;;;;;;;10.77;8.05;;;;;;;18.03;69.93;99542.00;5073468;28;20032;-74
2022/10/07 11:01:17;;;;;;;9.50;7.95;;;;;;;18.08;69.63;99528.00;5091711;28;20491;-76
2022/10/07 11:04:07;;;;;;;10.82;7.70;;;;;;;18.14;69.41;99518.34;5082754;28;20183;-74
2022/10/07 11:06:35;;;;;;;10.70;7.82;;;;;;;18.22;69.27;99515.94;5088794;28;20082;-76
2022/10/07 11:09:02;;;;;;;9.30;7.45;;;;;;;18.30;69.36;99512.38;5091750;28;20032;-78
2022/10/07 11:11:28;;;;;;;10.55;7.03;;;;;;;18.38;68.54;99503.25;5072531;28;20026;-76
2022/10/07 11:13:57;;;;;;;9.70;7.07;;;;;;;18.44;68.90;99496.41;5085471;28;20028;-75
2022/10/07 11:16:30;;;;;;;12.52;8.27;;;;;;;18.55;68.97;99493.31;5085488;28;20396;-74
2022/10/07 11:19:13;;;;;;;9.57;7.18;;;;;;;18.63;68.82;99489.72;5085318;28;20044;-72
2022/10/07 11:21:43;;;;;;;10.13;7.25;;;;;;;18.72;68.45;99489.75;5082209;28;20055;-76
2022/10/07 11:24:18;;;;;;;10.85;7.25;;;;;;;18.80;68.09;99479.78;5077719;28;20033;-76
2022/10/07 11:26:55;;;;;;;12.13;7.78;;;;;;;18.84;68.00;99472.41;5083789;28;20543;-77
2022/10/07 11:29:53;;;;;;;9.32;7.53;;;;;;;18.91;68.18;99469.97;5085498;28;20055;-75
2022/10/07 11:32:27;;;;;;;10.07;7.45;;;;;;;18.96;68.21;99475.38;5084847;28;20027;-76
2022/10/07 11:35:06;;;;;;;10.05;7.63;;;;;;;19.01;67.75;99463.28;5080111;28;20598;-79
2022/10/07 11:37:42;;;;;;;10.77;7.90;;;;;;;19.12;67.51;99460.97;5085168;28;20078;-77
2022/10/07 11:40:08;;;;;;;12.48;8.18;;;;;;;19.22;67.75;99457.03;5085821;28;20029;-76
2022/10/07 11:42:42;;;;;;;9.48;7.65;;;;;;;19.29;67.52;99446.22;5082073;28;20030;-76
2022/10/07 11:45:12;;;;;;;10.07;6.53;;;;;;;19.38;67.36;99443.41;5086970;28;20035;-76
2022/10/07 11:47:42;;;;;;;5.90;4.95;;;;;;;19.45;66.90;99443.72;5090066;28;20032;-72
2022/10/07 11:50:28;;;;;;;5.82;3.95;;;;;;;19.49;66.75;99439.97;5084090;28;20499;-76